Time;durP1;ratioP1;P1;durP2;ratioP2;P2;SDS_P1;SDS_P2;PMS_P1;PMS_P2;Temp;Humidity;BMP_temperature;BMP_pressure;BME280_temperature;BME280_humidity;BME280_pressure;Samples;Min_cycle;Max_cycle;Signal;HPM_P1;HPM_P2
2022/03/23 00:01:05;;;;;;;9.63;7.50;;;19.90;39.60;;;;;;5118220;28;20448;-55
2022/03/23 00:03:32;;;;;;;8.02;7.18;;;19.90;39.60;;;;;;5117334;28;20076;-55
2022/03/23 00:05:58;;;;;;;8.50;7.60;;;19.90;39.60;;;;;;5116683;28;20028;-49
2022/03/23 00:08:25;;;;;;;8.40;7.50;;;19.90;39.70;;;;;;5116673;28;20023;-54
2022/03/23 00:10:50;;;;;;;9.27;7.68;;;19.90;39.70;;;;;;5116758;28;20365;-54
2022/03/23 00:13:17;;;;;;;9.40;7.88;;;19.90;39.70;;;;;;5117019;28;20012;-51
2022/03/23 00:15:43;;;;;;;9.68;7.20;;;19.90;39.70;;;;;;5117414;28;20016;-53
2022/03/23 00:18:10;;;;;;;7.70;6.95;;;19.90;39.70;;;;;;5117277;28;20011;-52
2022/03/23 00:20:35;;;;;;;10.75;7.47;;;19.90;39.70;;;;;;5099386;28;20023;-52
2022/03/23 00:23:02;;;;;;;7.82;7.00;;;19.90;39.70;;;;;;5116976;28;20011;-50
2022/03/23 00:25:29;;;;;;;11.32;6.90;;;19.90;39.70;;;;;;5099127;28;20041;-53
2022/03/23 00:27:54;;;;;;;8.40;7.60;;;19.90;39.70;;;;;;5098975;28;20011;-52
2022/03/23 00:30:21;;;;;;;13.40;7.00;;;19.80;39.60;;;;;;5117582;28;20112;-53
2022/03/23 00:32:47;;;;;;;9.85;7.50;;;19.80;39.70;;;;;;5117471;28;20020;-50
2022/03/23 00:35:13;;;;;;;8.35;7.45;;;19.80;39.70;;;;;;5117776;28;20016;-52
2022/03/23 00:37:39;;;;;;;7.80;7.00;;;19.80;39.70;;;;;;5099581;28;20080;-49
2022/03/23 00:40:06;;;;;;;9.55;7.95;;;19.80;39.70;;;;;;5099459;28;20019;-48
2022/03/23 00:42:33;;;;;;;11.82;8.18;;;19.80;39.70;;;;;;5116758;28;20488;-51
2022/03/23 00:45:00;;;;;;;8.82;7.85;;;19.80;39.70;;;;;;5117048;28;20036;-50
2022/03/23 00:47:26;;;;;;;9.70;7.60;;;19.80;39.70;;;;;;5116841;28;20065;-48
2022/03/23 00:49:55;;;;;;;9.70;7.90;;;19.80;39.70;;;;;;5117835;28;20070;-53
2022/03/23 00:52:22;;;;;;;9.70;7.65;;;19.80;39.70;;;;;;5116960;28;20020;-53
2022/03/23 00:54:47;;;;;;;11.27;8.15;;;19.80;39.70;;;;;;5116270;28;20098;-51
2022/03/23 00:57:13;;;;;;;10.05;8.05;;;19.80;39.80;;;;;;5116456;28;20043;-52
2022/03/23 00:59:39;;;;;;;9.20;7.63;;;19.80;39.80;;;;;;5115439;28;20077;-52
2022/03/23 01:02:10;;;;;;;9.80;7.30;;;19.70;39.70;;;;;;5116045;28;20020;-51
2022/03/23 01:04:36;;;;;;;11.07;8.05;;;19.80;39.80;;;;;;5116438;28;20462;-53
2022/03/23 01:07:02;;;;;;;10.38;6.95;;;19.70;39.70;;;;;;5098455;28;20019;-50
2022/03/23 01:09:28;;;;;;;9.50;7.20;;;19.70;39.80;;;;;;5117256;28;20020;-50
2022/03/23 01:11:54;;;;;;;11.25;8.30;;;19.70;39.80;;;;;;5097878;28;20064;-52
2022/03/23 01:14:22;;;;;;;10.02;8.35;;;19.70;39.80;;;;;;5115204;28;20095;-50
2022/03/23 01:16:49;;;;;;;8.63;7.72;;;19.70;39.80;;;;;;5115305;28;20016;-53
2022/03/23 01:19:15;;;;;;;11.10;7.88;;;19.70;39.80;;;;;;5097033;28;20030;-53
2022/03/23 01:21:41;;;;;;;11.25;7.75;;;19.70;39.80;;;;;;5097286;28;20024;-53
2022/03/23 01:24:07;;;;;;;9.23;7.80;;;19.70;39.80;;;;;;5114814;28;20042;-50
2022/03/23 01:26:33;;;;;;;9.52;8.15;;;19.70;39.80;;;;;;5115150;28;20015;-53
2022/03/23 01:28:59;;;;;;;8.88;7.95;;;19.70;39.80;;;;;;5115452;28;20027;-55
2022/03/23 01:31:27;;;;;;;10.30;8.02;;;19.70;39.80;;;;;;5115224;28;20044;-55
2022/03/23 01:33:59;;;;;;;9.35;7.90;;;19.70;39.90;;;;;;5115899;28;20503;-55
2022/03/23 01:36:27;;;;;;;9.90;8.20;;;19.70;39.80;;;;;;5117045;28;20066;-54
2022/03/23 01:38:54;;;;;;;10.35;8.02;;;19.70;39.90;;;;;;5116303;28;20031;-49
2022/03/23 01:41:20;;;;;;;8.60;7.70;;;19.70;39.90;;;;;;5118451;28;20020;-50
2022/03/23 01:43:47;;;;;;;8.15;7.35;;;19.60;39.90;;;;;;5119381;28;20023;-48
2022/03/23 01:46:19;;;;;;;10.32;8.18;;;19.70;39.90;;;;;;5116970;28;20020;-54
2022/03/23 01:48:46;;;;;;;9.25;8.23;;;19.70;40.00;;;;;;5081957;28;20012;-54
2022/03/23 01:51:12;;;;;;;9.13;7.95;;;19.60;39.90;;;;;;5117087;28;20073;-55
2022/03/23 01:53:38;;;;;;;9.60;7.88;;;19.70;39.90;;;;;;5116672;28;20066;-49
2022/03/23 01:56:04;;;;;;;8.77;7.65;;;19.60;39.90;;;;;;5098151;28;20438;-52
2022/03/23 01:58:31;;;;;;;10.45;8.10;;;19.60;39.90;;;;;;5116342;28;20027;-54
2022/03/23 02:00:58;;;;;;;11.27;8.45;;;19.60;39.90;;;;;;5116904;28;20024;-50
2022/03/23 02:03:23;;;;;;;9.73;8.70;;;19.60;39.90;;;;;;5116712;28;20008;-54
2022/03/23 02:05:50;;;;;;;10.57;8.27;;;19.60;39.90;;;;;;5098369;28;20022;-52
2022/03/23 02:08:15;;;;;;;9.80;7.65;;;19.60;39.90;;;;;;5116863;28;20091;-48
2022/03/23 02:10:42;;;;;;;9.93;7.90;;;19.60;39.90;;;;;;5116244;28;20533;-52
2022/03/23 02:13:09;;;;;;;11.13;8.63;;;19.60;40.00;;;;;;5098900;28;20024;-52
2022/03/23 02:15:35;;;;;;;9.57;8.07;;;19.60;40.00;;;;;;5117699;28;20020;-52
2022/03/23 02:18:01;;;;;;;8.20;7.40;;;19.60;40.00;;;;;;5099051;28;20024;-51
2022/03/23 02:20:27;;;;;;;8.68;7.78;;;19.60;40.00;;;;;;5115866;28;20401;-51
2022/03/23 02:22:53;;;;;;;8.88;8.02;;;19.60;40.00;;;;;;5097776;28;20031;-49
2022/03/23 02:25:24;;;;;;;9.43;8.32;;;19.60;40.00;;;;;;5115683;28;20020;-53
2022/03/23 02:27:50;;;;;;;9.82;8.15;;;19.50;40.00;;;;;;5115802;28;20102;-50
2022/03/23 02:30:16;;;;;;;8.63;7.75;;;19.50;40.00;;;;;;5117671;28;20501;-53
2022/03/23 02:32:43;;;;;;;9.23;7.82;;;19.50;40.00;;;;;;5101883;28;20035;-47
2022/03/23 02:35:11;;;;;;;9.70;8.23;;;19.50;40.10;;;;;;5103494;28;20020;-48
2022/03/23 02:37:37;;;;;;;8.77;7.88;;;19.50;40.10;;;;;;5122298;28;20031;-51
2022/03/23 02:40:04;;;;;;;10.63;8.45;;;19.50;40.00;;;;;;5121011;28;20039;-49
2022/03/23 02:42:31;;;;;;;11.18;8.25;;;19.50;40.10;;;;;;5120982;28;20023;-51
2022/03/23 02:44:57;;;;;;;10.63;8.48;;;19.60;40.10;;;;;;5122050;28;20042;-53
2022/03/23 02:47:24;;;;;;;9.05;8.10;;;19.50;40.10;;;;;;5121405;28;20036;-49
2022/03/23 02:49:51;;;;;;;11.77;8.23;;;19.50;40.10;;;;;;5118668;28;20053;-48
2022/03/23 02:52:17;;;;;;;8.48;7.68;;;19.50;40.10;;;;;;5118524;28;20027;-52
2022/03/23 03:03:08;;;;;;;9.13;8.23;;;19.50;40.10;;;;;;5120027;28;20553;-50
2022/03/23 03:05:33;;;;;;;12.85;8.40;;;19.50;40.10;;;;;;5101618;28;20102;-52
2022/03/23 03:10:47;;;;;;;8.85;7.95;;;19.50;40.10;;;;;;5120749;28;20496;-50
2022/03/23 03:13:12;;;;;;;10.65;8.57;;;19.50;40.10;;;;;;5121612;28;20098;-52
2022/03/23 03:15:38;;;;;;;9.32;8.32;;;19.40;40.10;;;;;;5121674;28;20490;-52
2022/03/23 03:18:05;;;;;;;11.18;8.23;;;19.40;40.00;;;;;;5122117;28;20047;-54
2022/03/23 03:20:32;;;;;;;9.50;8.45;;;19.40;40.10;;;;;;5122100;28;20026;-53
2022/03/23 03:22:59;;;;;;;10.98;8.85;;;19.40;40.10;;;;;;5122705;28;20035;-54
2022/03/23 03:25:27;;;;;;;9.65;8.40;;;19.40;40.10;;;;;;5122306;28;20090;-54
2022/03/23 03:27:53;;;;;;;11.98;8.60;;;19.40;40.10;;;;;;5119370;28;20012;-49
2022/03/23 03:30:20;;;;;;;9.60;8.60;;;19.40;40.10;;;;;;5119474;28;20063;-53
2022/03/23 03:32:46;;;;;;;13.23;8.98;;;19.40;40.10;;;;;;5120009;28;20047;-51
2022/03/23 03:35:13;;;;;;;11.15;9.07;;;19.40;40.10;;;;;;5102718;28;20044;-52
2022/03/23 03:37:39;;;;;;;11.00;8.48;;;19.40;40.10;;;;;;5120950;28;20038;-52
2022/03/23 03:40:06;;;;;;;10.65;8.68;;;19.40;40.10;;;;;;5119973;28;20016;-51
2022/03/23 03:42:32;;;;;;;10.10;8.38;;;19.40;40.10;;;;;;5121351;28;20043;-51
2022/03/23 03:44:59;;;;;;;9.63;8.63;;;19.40;40.10;;;;;;5121019;28;20016;-53
2022/03/23 03:47:25;;;;;;;12.68;8.73;;;19.40;40.10;;;;;;5119589;28;20008;-55
2022/03/23 03:49:51;;;;;;;9.38;8.38;;;19.40;40.10;;;;;;5118585;28;20015;-52
2022/03/23 03:52:18;;;;;;;8.73;7.82;;;19.40;40.20;;;;;;5118128;28;20027;-52
2022/03/23 03:54:45;;;;;;;10.60;8.93;;;19.40;40.20;;;;;;5117792;28;20023;-49
2022/03/23 03:57:11;;;;;;;9.93;8.18;;;19.40;40.20;;;;;;5099099;28;20012;-52
2022/03/23 03:59:37;;;;;;;12.65;9.27;;;19.30;40.10;;;;;;5116777;28;20032;-49
2022/03/23 04:02:03;;;;;;;11.60;8.98;;;19.30;40.10;;;;;;5116868;28;20030;-48
2022/03/23 04:04:29;;;;;;;10.43;8.80;;;19.30;40.10;;;;;;5116932;28;20012;-47
2022/03/23 04:06:56;;;;;;;10.65;8.65;;;19.30;40.10;;;;;;5098270;28;20022;-52
2022/03/23 04:09:22;;;;;;;9.98;8.93;;;19.30;40.10;;;;;;5116990;28;20046;-46
2022/03/23 04:11:47;;;;;;;9.68;8.65;;;19.30;40.10;;;;;;5098595;28;20023;-48
2022/03/23 04:14:13;;;;;;;10.10;9.00;;;19.30;40.10;;;;;;5098926;28;20554;-47
2022/03/23 04:16:39;;;;;;;11.40;8.63;;;19.30;40.10;;;;;;5117142;28;20023;-48
2022/03/23 04:19:06;;;;;;;10.70;8.82;;;19.30;40.10;;;;;;5117303;28;20016;-50
2022/03/23 04:21:33;;;;;;;12.68;8.77;;;19.30;40.10;;;;;;5116691;28;20024;-51
2022/03/23 04:24:00;;;;;;;10.27;9.00;;;19.30;40.10;;;;;;5116690;28;20018;-47
2022/03/23 04:26:26;;;;;;;10.30;8.60;;;19.30;40.20;;;;;;5098339;28;20050;-53
2022/03/23 04:28:52;;;;;;;13.32;8.60;;;19.30;40.20;;;;;;5117092;28;20082;-52
2022/03/23 04:31:20;;;;;;;9.90;8.60;;;19.30;40.20;;;;;;5098206;28;20104;-49
2022/03/23 04:33:46;;;;;;;9.48;8.52;;;19.30;40.20;;;;;;5116753;28;20028;-52
2022/03/23 04:36:12;;;;;;;13.65;8.43;;;19.20;40.10;;;;;;5116854;28;20020;-50
2022/03/23 04:38:38;;;;;;;11.15;9.02;;;19.20;40.20;;;;;;5098866;28;20484;-50
2022/03/23 04:41:04;;;;;;;10.00;9.00;;;19.20;40.20;;;;;;5098764;28;20072;-51
2022/03/23 04:43:31;;;;;;;11.48;8.95;;;19.30;40.20;;;;;;5098609;28;20016;-51
2022/03/23 04:45:57;;;;;;;9.77;8.77;;;19.20;40.20;;;;;;5116841;28;20008;-52
2022/03/23 04:48:24;;;;;;;13.50;8.68;;;19.20;40.20;;;;;;5116720;28;20018;-51
2022/03/23 04:50:50;;;;;;;12.35;9.43;;;19.20;40.20;;;;;;5116317;28;20023;-53
2022/03/23 04:53:16;;;;;;;10.35;9.02;;;19.20;40.50;;;;;;5115183;28;20051;-50
2022/03/23 04:55:41;;;;;;;11.38;9.02;;;19.20;40.20;;;;;;5115734;28;20015;-53
2022/03/23 04:58:08;;;;;;;10.68;8.75;;;19.20;40.30;;;;;;5115526;28;20076;-51
2022/03/23 05:00:35;;;;;;;9.70;8.68;;;19.20;40.20;;;;;;5115473;28;20485;-49
2022/03/23 05:03:00;;;;;;;11.05;8.95;;;19.20;40.30;;;;;;5115683;28;20016;-51
2022/03/23 05:05:26;;;;;;;10.43;8.73;;;19.20;40.20;;;;;;5115855;28;20035;-49
2022/03/23 05:07:53;;;;;;;9.93;8.93;;;19.20;40.30;;;;;;5116382;28;20024;-46
2022/03/23 05:10:18;;;;;;;11.48;8.75;;;19.20;40.30;;;;;;5116275;28;20016;-49
2022/03/23 05:12:45;;;;;;;9.80;8.80;;;19.20;40.30;;;;;;5115992;28;20019;-53
2022/03/23 05:15:12;;;;;;;11.50;9.23;;;19.20;40.30;;;;;;5115859;28;20039;-50
2022/03/23 05:17:38;;;;;;;10.27;9.02;;;19.20;40.30;;;;;;5116169;28;20027;-52
2022/03/23 05:20:05;;;;;;;11.55;8.30;;;19.20;40.30;;;;;;5116000;28;20028;-52
2022/03/23 05:22:32;;;;;;;11.30;9.13;;;19.20;40.30;;;;;;5116149;28;20031;-49
2022/03/23 05:24:58;;;;;;;9.60;8.60;;;19.10;40.30;;;;;;5114932;28;20020;-47
2022/03/23 05:27:24;;;;;;;9.60;8.70;;;19.10;40.30;;;;;;5115281;28;20049;-47
2022/03/23 05:29:50;;;;;;;10.07;9.07;;;19.20;40.40;;;;;;5115343;28;20046;-50
2022/03/23 05:32:18;;;;;;;9.32;8.18;;;19.10;40.30;;;;;;5097254;28;20031;-48
2022/03/23 05:34:48;;;;;;;11.05;9.35;;;19.10;40.30;;;;;;5115744;28;20016;-53
2022/03/23 05:37:16;;;;;;;11.05;8.45;;;19.10;40.30;;;;;;5118749;28;20026;-49
2022/03/23 05:39:42;;;;;;;9.68;8.68;;;19.10;40.40;;;;;;5115726;28;20538;-48
2022/03/23 05:42:09;;;;;;;10.57;8.75;;;19.10;40.40;;;;;;5115298;28;20020;-48
2022/03/23 05:44:34;;;;;;;11.80;9.20;;;19.10;40.30;;;;;;5117819;28;20018;-53
2022/03/23 05:47:00;;;;;;;13.43;9.55;;;19.10;40.30;;;;;;5100097;28;20012;-54
2022/03/23 05:49:26;;;;;;;9.90;8.90;;;19.10;40.40;;;;;;5100014;28;20466;-49
2022/03/23 05:51:53;;;;;;;9.45;8.45;;;19.10;40.40;;;;;;5115965;28;20034;-49
2022/03/23 05:54:20;;;;;;;9.70;8.40;;;19.10;40.40;;;;;;5114963;28;20031;-47
2022/03/23 05:56:45;;;;;;;10.48;9.32;;;19.10;40.30;;;;;;5115174;28;20053;-47
2022/03/23 05:59:12;;;;;;;11.68;8.85;;;19.10;40.30;;;;;;5097433;28;20027;-51
2022/03/23 06:01:37;;;;;;;10.35;8.68;;;19.10;40.30;;;;;;5096843;28;20019;-48
2022/03/23 06:04:03;;;;;;;11.32;8.73;;;19.10;40.40;;;;;;5115236;28;20470;-46
2022/03/23 06:06:29;;;;;;;14.43;9.13;;;19.10;40.40;;;;;;5114911;28;20462;-51
2022/03/23 06:08:55;;;;;;;11.52;9.07;;;19.10;40.40;;;;;;5115187;28;20057;-52
2022/03/23 06:11:21;;;;;;;13.43;9.63;;;19.10;40.40;;;;;;5096656;28;20381;-46
2022/03/23 06:13:47;;;;;;;13.38;9.45;;;19.10;40.40;;;;;;5115198;28;20554;-48
2022/03/23 06:16:14;;;;;;;31.17;9.63;;;19.10;40.40;;;;;;5096974;28;20023;-46
2022/03/23 06:18:40;;;;;;;21.63;9.65;;;19.00;40.30;;;;;;5115240;28;20113;-52
2022/03/23 06:21:06;;;;;;;15.18;9.35;;;19.10;40.40;;;;;;5116447;28;20065;-49
2022/03/23 06:23:33;;;;;;;21.65;9.93;;;19.10;40.40;;;;;;5116366;28;20014;-49
2022/03/23 06:26:00;;;;;;;17.45;10.07;;;19.00;40.30;;;;;;5115924;28;20012;-51
2022/03/23 06:28:26;;;;;;;14.48;9.02;;;19.10;40.30;;;;;;5097948;28;20141;-47
2022/03/23 06:30:51;;;;;;;15.23;9.05;;;19.00;40.30;;;;;;5116653;28;20504;-48
2022/03/23 06:33:19;;;;;;;11.45;8.80;;;19.00;40.20;;;;;;5116409;28;20040;-52
2022/03/23 06:35:45;;;;;;;16.05;8.88;;;19.00;40.30;;;;;;5117037;28;20034;-52
2022/03/23 06:38:11;;;;;;;14.88;9.75;;;19.10;40.30;;;;;;5116287;28;20008;-51
2022/03/23 06:40:38;;;;;;;15.18;8.90;;;19.00;40.20;;;;;;5116520;28;20023;-51
2022/03/23 06:43:04;;;;;;;13.45;9.40;;;19.00;40.20;;;;;;5115445;28;20073;-48
2022/03/23 06:45:30;;;;;;;12.57;9.18;;;19.10;40.30;;;;;;5096747;28;20019;-52
2022/03/23 06:47:56;;;;;;;15.15;9.20;;;19.00;40.20;;;;;;5114282;28;20355;-49
2022/03/23 06:50:22;;;;;;;11.40;9.25;;;19.00;40.20;;;;;;5114255;28;20469;-47
2022/03/23 06:52:48;;;;;;;11.75;9.05;;;19.10;40.30;;;;;;5080054;28;20084;-51
2022/03/23 06:55:15;;;;;;;14.00;8.93;;;19.00;40.20;;;;;;5114665;28;20023;-47
2022/03/23 06:57:40;;;;;;;15.25;9.55;;;19.00;40.20;;;;;;5114078;28;20031;-46
2022/03/23 07:00:13;;;;;;;10.23;8.73;;;19.00;40.20;;;;;;5079644;28;20149;-58
2022/03/23 07:02:42;;;;;;;11.88;8.82;;;19.10;40.20;;;;;;5117036;28;20004;-51
2022/03/23 07:05:10;;;;;;;13.55;8.48;;;19.10;40.10;;;;;;5115791;28;20515;-54
2022/03/23 07:07:37;;;;;;;10.90;9.23;;;19.00;40.10;;;;;;5114719;28;20099;-53
2022/03/23 07:10:04;;;;;;;12.80;9.50;;;19.10;40.10;;;;;;5114966;28;20016;-52
2022/03/23 07:12:30;;;;;;;10.95;8.90;;;19.00;40.00;;;;;;5097711;28;20107;-53
2022/03/23 07:14:56;;;;;;;14.60;9.88;;;19.00;39.90;;;;;;5097028;28;20031;-53
2022/03/23 07:17:22;;;;;;;11.48;8.73;;;19.00;39.90;;;;;;5117661;28;20760;-53
2022/03/23 07:19:47;;;;;;;17.30;9.02;;;19.00;39.90;;;;;;5116378;28;20032;-51
2022/03/23 07:22:15;;;;;;;20.73;9.80;;;19.00;40.00;;;;;;5096366;28;20030;-48
2022/03/23 07:24:42;;;;;;;24.60;10.93;;;19.10;40.90;;;;;;5095416;28;20008;-49
2022/03/23 07:27:08;;;;;;;22.52;11.73;;;19.20;40.90;;;;;;5113299;28;20067;-49
2022/03/23 07:29:35;;;;;;;27.05;12.60;;;19.30;41.00;;;;;;5095743;28;20134;-50
2022/03/23 07:32:04;;;;;;;38.38;13.57;;;19.40;40.40;;;;;;5095800;28;20016;-53
2022/03/23 07:34:34;;;;;;;21.17;13.88;;;19.40;40.00;;;;;;5113740;28;20165;-52
2022/03/23 07:37:01;;;;;;;27.30;14.65;;;19.50;39.80;;;;;;5095710;28;20042;-49
2022/03/23 07:39:27;;;;;;;24.63;14.25;;;19.50;39.70;;;;;;5095722;28;20034;-52
2022/03/23 07:41:54;;;;;;;29.52;16.23;;;19.50;39.50;;;;;;5096284;28;20007;-52
2022/03/23 07:44:21;;;;;;;26.13;15.02;;;19.60;39.20;;;;;;5096164;28;20027;-54
2022/03/23 07:46:47;;;;;;;23.23;15.13;;;19.60;38.90;;;;;;5114101;28;20043;-50
2022/03/23 07:49:23;;;;;;;24.17;15.60;;;19.60;38.80;;;;;;5114358;28;20039;-47
2022/03/23 07:51:51;;;;;;;27.98;15.98;;;19.70;38.90;;;;;;5096090;28;20028;-53
2022/03/23 07:54:17;;;;;;;23.17;16.58;;;19.70;39.20;;;;;;5113389;28;20481;-52
2022/03/23 07:56:43;;;;;;;27.90;16.88;;;19.70;38.40;;;;;;5114031;28;20019;-48
2022/03/23 07:59:09;;;;;;;26.63;16.92;;;19.70;38.30;;;;;;5114249;28;20036;-51
2022/03/23 08:01:35;;;;;;;24.27;15.95;;;19.80;38.40;;;;;;5095692;28;20381;-53
2022/03/23 08:04:01;;;;;;;29.23;16.85;;;19.80;38.40;;;;;;5113652;28;20012;-50
2022/03/23 08:06:28;;;;;;;30.02;17.52;;;19.80;38.00;;;;;;5096111;28;20020;-51
2022/03/23 08:08:54;;;;;;;25.38;16.27;;;19.80;38.70;;;;;;5095273;28;20507;-52
2022/03/23 08:11:21;;;;;;;29.92;16.83;;;19.90;38.00;;;;;;5095658;28;20015;-48
2022/03/23 08:13:47;;;;;;;26.75;16.65;;;19.90;38.00;;;;;;5113808;28;20141;-51
2022/03/23 08:16:16;;;;;;;28.77;16.90;;;20.00;38.90;;;;;;5078633;28;20019;-53
2022/03/23 08:18:42;;;;;;;30.65;16.70;;;20.10;38.70;;;;;;5096262;28;20077;-51
2022/03/23 08:21:07;;;;;;;31.48;16.40;;;20.10;37.90;;;;;;5114227;28;20483;-52
2022/03/23 08:23:33;;;;;;;30.27;15.45;;;20.00;38.80;;;;;;5114755;28;20027;-50
2022/03/23 08:26:02;;;;;;;32.08;15.88;;;19.90;38.20;;;;;;5114519;28;20101;-51
2022/03/23 08:28:31;;;;;;;27.30;14.93;;;19.90;38.30;;;;;;5113361;28;20126;-52
2022/03/23 08:31:00;;;;;;;32.22;15.95;;;19.80;38.30;;;;;;5114304;28;20123;-52
2022/03/23 08:33:32;;;;;;;27.45;14.18;;;19.70;38.50;;;;;;5096558;28;20058;-53
2022/03/23 08:35:58;;;;;;;25.77;14.32;;;19.70;38.60;;;;;;5114537;28;20019;-52
2022/03/23 08:38:28;;;;;;;23.55;13.65;;;19.60;38.60;;;;;;5114151;28;20055;-54
2022/03/23 08:40:54;;;;;;;23.98;13.40;;;19.60;38.70;;;;;;5113834;28;20027;-53
2022/03/23 08:43:20;;;;;;;26.70;13.05;;;19.50;38.70;;;;;;5114204;28;20447;-53
2022/03/23 08:45:46;;;;;;;28.58;13.85;;;19.50;38.80;;;;;;5112416;28;20497;-54
2022/03/23 08:48:13;;;;;;;22.95;12.95;;;19.50;38.80;;;;;;5114836;28;20031;-54
2022/03/23 08:50:44;;;;;;;25.05;12.93;;;19.50;38.80;;;;;;5095801;28;20023;-53
2022/03/23 08:53:12;;;;;;;26.25;12.95;;;19.50;38.90;;;;;;5095669;28;20020;-53
2022/03/23 08:55:38;;;;;;;20.25;12.15;;;19.50;38.90;;;;;;5113634;28;20056;-52
2022/03/23 08:58:04;;;;;;;21.48;12.27;;;19.50;38.90;;;;;;5112948;28;20032;-53
2022/03/23 09:00:29;;;;;;;18.58;12.07;;;19.50;39.00;;;;;;5095480;28;20051;-54
2022/03/23 09:02:56;;;;;;;18.65;11.38;;;19.50;39.00;;;;;;5113109;28;20449;-54
2022/03/23 09:05:24;;;;;;;20.38;12.50;;;19.50;39.10;;;;;;5119235;28;20099;-57
2022/03/23 09:07:50;;;;;;;20.40;10.73;;;19.50;39.10;;;;;;5117936;28;20434;-53
2022/03/23 09:10:18;;;;;;;20.55;11.43;;;19.50;39.10;;;;;;5118032;28;20026;-53
2022/03/23 09:12:44;;;;;;;21.67;10.80;;;19.40;39.00;;;;;;5115147;28;20446;-54
2022/03/23 09:15:14;;;;;;;22.52;10.73;;;19.40;39.00;;;;;;5115864;28;20027;-56
2022/03/23 09:17:42;;;;;;;17.00;10.77;;;19.40;39.00;;;;;;5115403;28;20023;-54
2022/03/23 09:20:16;;;;;;;21.30;10.55;;;19.40;39.00;;;;;;5095369;28;20354;-55
2022/03/23 09:22:41;;;;;;;17.00;10.68;;;19.40;39.00;;;;;;5115340;28;20004;-53
2022/03/23 09:25:12;;;;;;;18.92;10.60;;;19.40;38.90;;;;;;5114823;28;20008;-52
2022/03/23 09:27:45;;;;;;;17.83;9.80;;;19.40;38.90;;;;;;5113924;28;20031;-52
2022/03/23 09:30:13;;;;;;;20.73;10.18;;;19.40;38.90;;;;;;5102908;28;20039;-54
2022/03/23 09:32:39;;;;;;;14.20;9.43;;;19.40;39.00;;;;;;5093351;28;20188;-53
2022/03/23 09:35:06;;;;;;;17.52;10.07;;;19.40;39.20;;;;;;5093437;28;20088;-52
2022/03/23 09:37:47;;;;;;;16.45;9.88;;;19.40;39.10;;;;;;5074465;28;20016;-53
2022/03/23 09:40:14;;;;;;;20.15;11.15;;;19.40;39.00;;;;;;5074040;28;20020;-53
2022/03/23 09:42:41;;;;;;;14.52;10.05;;;19.40;39.00;;;;;;5092824;28;20510;-53
2022/03/23 09:45:22;;;;;;;15.27;9.60;;;19.40;38.90;;;;;;5092596;28;20051;-51
2022/03/23 09:47:51;;;;;;;15.48;10.07;;;19.50;38.90;;;;;;5076679;28;20114;-55
2022/03/23 09:50:16;;;;;;;18.05;9.98;;;19.40;38.90;;;;;;5058101;28;20032;-53
2022/03/23 09:52:43;;;;;;;18.40;10.45;;;19.40;38.90;;;;;;5093391;28;20107;-53
2022/03/23 09:55:09;;;;;;;15.48;9.85;;;19.40;38.80;;;;;;5093101;28;20054;-52
2022/03/23 09:57:35;;;;;;;17.25;10.32;;;19.40;38.80;;;;;;5074570;28;20430;-53
2022/03/23 10:00:08;;;;;;;20.95;10.32;;;19.40;38.80;;;;;;5092433;28;20027;-53
2022/03/23 10:02:40;;;;;;;17.70;10.68;;;19.40;38.70;;;;;;5092740;28;20039;-51
2022/03/23 10:05:23;;;;;;;14.45;9.98;;;19.50;38.70;;;;;;5092694;28;20024;-50
2022/03/23 10:08:31;;;;;;;17.88;10.52;;;19.50;38.70;;;;;;5092098;28;20057;-54
2022/03/23 10:11:40;;;;;;;15.55;10.07;;;19.40;38.60;;;;;;5069650;28;20036;-55
2022/03/23 10:14:44;;;;;;;19.23;10.15;;;19.40;38.60;;;;;;5091032;28;20087;-53
2022/03/23 10:17:44;;;;;;;18.48;10.65;;;19.40;38.60;;;;;;5091627;28;20055;-54
2022/03/23 10:20:13;;;;;;;15.70;10.38;;;19.40;38.60;;;;;;5055961;28;20044;-53
2022/03/23 10:23:06;;;;;;;16.85;10.00;;;19.40;38.50;;;;;;5092571;28;20020;-54
2022/03/23 10:25:31;;;;;;;18.20;10.43;;;19.40;38.50;;;;;;5088646;28;20020;-53
2022/03/23 10:27:58;;;;;;;15.77;10.52;;;19.40;38.50;;;;;;5074127;28;20027;-51
2022/03/23 10:30:42;;;;;;;19.42;10.98;;;19.40;38.40;;;;;;5091351;28;20494;-55
2022/03/23 10:33:22;;;;;;;20.17;11.85;;;19.50;38.30;;;;;;5090296;28;20021;-53
2022/03/23 10:36:11;;;;;;;17.00;11.82;;;19.50;37.90;;;;;;5093382;28;20031;-50
2022/03/23 10:38:38;;;;;;;20.40;13.70;;;19.70;37.60;;;;;;5093857;28;20099;-53
2022/03/23 10:41:09;;;;;;;22.17;13.98;;;19.70;37.10;;;;;;5092780;28;20038;-55
2022/03/23 10:43:36;;;;;;;18.90;14.82;;;19.70;36.90;;;;;;5093805;28;20008;-53
2022/03/23 10:46:09;;;;;;;21.83;15.35;;;19.70;36.80;;;;;;5094803;28;20458;-51
2022/03/23 10:48:34;;;;;;;21.67;14.93;;;19.70;37.00;;;;;;5093581;28;20025;-53
2022/03/23 10:51:01;;;;;;;23.02;16.08;;;19.70;36.60;;;;;;5076666;28;20479;-52
2022/03/23 10:53:37;;;;;;;22.40;15.40;;;19.60;36.70;;;;;;5096540;28;20149;-52
2022/03/23 10:56:04;;;;;;;25.70;14.20;;;19.50;36.70;;;;;;5079288;28;20422;-54
2022/03/23 10:58:30;;;;;;;22.80;13.50;;;19.50;36.90;;;;;;5097639;28;20034;-56
2022/03/23 11:01:05;;;;;;;19.33;13.95;;;19.50;36.90;;;;;;5098890;28;20020;-51
2022/03/23 11:03:50;;;;;;;21.38;13.77;;;19.50;36.90;;;;;;5099516;28;20008;-51
2022/03/23 11:06:17;;;;;;;22.90;13.35;;;19.50;36.90;;;;;;5100533;28;20051;-50
2022/03/23 11:08:46;;;;;;;23.30;13.10;;;19.50;36.90;;;;;;5083289;28;20024;-52
2022/03/23 11:16:46;;;;;;;19.23;12.45;;;19.50;36.90;;;;;;5083151;28;20499;-53
2022/03/23 11:19:26;;;;;;;21.77;12.80;;;19.50;37.10;;;;;;5097956;28;20028;-53
2022/03/23 11:22:15;;;;;;;23.35;12.88;;;19.50;36.90;;;;;;5098721;28;20032;-53
2022/03/23 11:24:47;;;;;;;16.88;11.80;;;19.50;36.90;;;;;;5098512;28;20020;-51
2022/03/23 11:27:17;;;;;;;18.40;12.65;;;19.50;37.00;;;;;;5098960;28;20073;-52
2022/03/23 11:29:44;;;;;;;21.63;12.52;;;19.50;37.00;;;;;;5098847;28;20088;-53
2022/03/23 11:32:13;;;;;;;23.52;13.27;;;19.60;36.80;;;;;;5098713;28;20138;-52
2022/03/23 11:34:40;;;;;;;18.00;12.50;;;19.60;36.80;;;;;;5099035;28;20023;-51
2022/03/23 11:37:07;;;;;;;17.67;11.70;;;19.60;36.70;;;;;;5098838;28;20028;-54
2022/03/23 11:39:33;;;;;;;17.55;12.10;;;19.60;37.30;;;;;;5099631;28;20020;-56
2022/03/23 11:41:59;;;;;;;20.88;12.38;;;19.60;36.70;;;;;;5065147;28;20012;-54
2022/03/23 11:44:26;;;;;;;19.27;11.48;;;19.60;36.70;;;;;;5100586;28;20023;-54
2022/03/23 11:46:56;;;;;;;17.75;11.90;;;19.60;36.60;;;;;;5101218;28;20027;-54
2022/03/23 11:49:25;;;;;;;19.02;11.60;;;19.60;36.40;;;;;;5101148;28;20008;-55
2022/03/23 11:52:01;;;;;;;15.80;12.10;;;19.60;36.70;;;;;;5100961;28;20089;-54
2022/03/23 11:57:21;;;;;;;20.40;11.93;;;19.60;36.20;;;;;;5084688;28;20031;-47
2022/03/23 11:59:47;;;;;;;15.57;11.55;;;19.70;36.60;;;;;;5098482;28;20035;-53
2022/03/23 12:02:15;;;;;;;17.40;10.98;;;19.60;36.40;;;;;;5097755;28;20072;-51
2022/03/23 12:04:41;;;;;;;18.92;12.30;;;19.60;36.30;;;;;;5080168;28;20020;-51
2022/03/23 12:07:08;;;;;;;15.95;11.60;;;19.60;36.10;;;;;;5079426;28;20383;-49
2022/03/23 12:09:41;;;;;;;16.00;11.93;;;19.60;36.20;;;;;;5098341;28;20028;-51
2022/03/23 12:12:11;;;;;;;14.30;11.23;;;19.60;35.90;;;;;;5097838;28;20020;-50
2022/03/23 12:14:38;;;;;;;19.65;11.50;;;19.70;35.60;;;;;;5098357;28;20027;-54
2022/03/23 12:17:11;;;;;;;19.10;11.63;;;19.70;35.90;;;;;;5098317;28;20016;-51
2022/03/23 12:19:57;;;;;;;18.00;11.43;;;19.70;35.50;;;;;;5098414;28;20107;-53
2022/03/23 12:22:34;;;;;;;17.33;10.80;;;19.70;35.70;;;;;;5098669;28;20096;-53
2022/03/23 12:25:29;;;;;;;16.33;10.75;;;19.70;35.90;;;;;;5098319;28;20474;-52
2022/03/23 12:28:10;;;;;;;17.35;11.10;;;19.70;35.90;;;;;;5081030;28;20386;-54
2022/03/23 12:30:58;;;;;;;;;;;19.70;35.90;;;;;;5098598;28;20119;-51
2022/03/23 12:33:26;;;;;;;14.98;10.25;;;19.70;35.80;;;;;;5098829;28;19935;-54
2022/03/23 12:35:52;;;;;;;15.90;10.65;;;19.70;35.80;;;;;;5098356;28;20027;-47
2022/03/23 12:38:25;;;;;;;18.10;11.65;;;19.70;35.30;;;;;;5097752;28;20481;-50
2022/03/23 12:40:51;;;;;;;15.25;10.95;;;19.80;35.50;;;;;;5098059;28;20024;-50
2022/03/23 12:43:35;;;;;;;15.07;10.48;;;19.80;35.50;;;;;;5079777;28;20035;-52
2022/03/23 12:46:01;;;;;;;13.18;9.43;;;19.80;35.20;;;;;;5097683;28;20008;-52
2022/03/23 12:59:35;;;;;;;12.55;9.48;;;19.80;35.70;;;;;;5097839;28;20043;-52
2022/03/23 13:02:25;;;;;;;20.55;11.05;;;19.80;35.50;;;;;;5097406;28;20004;-53
2022/03/23 13:04:52;;;;;;;18.70;9.95;;;19.90;35.50;;;;;;5097363;28;20027;-49
2022/03/23 13:07:30;;;;;;;13.75;9.00;;;19.90;35.20;;;;;;5097830;28;20028;-48
2022/03/23 13:09:56;;;;;;;12.55;8.35;;;19.90;35.60;;;;;;5079729;28;20034;-53
2022/03/23 13:12:28;;;;;;;13.25;8.93;;;19.90;35.70;;;;;;5097855;28;20008;-52